createdAt,value
2018-02-08T00:00:39.005Z,65.60
2018-02-08T00:03:10.096Z,66.12
2018-02-08T00:05:41.220Z,66.48
2018-02-08T00:08:12.316Z,67.03
2018-02-08T00:10:43.431Z,67.51
2018-02-08T00:13:14.538Z,68.20
2018-02-08T00:15:45.638Z,68.34
2018-02-08T00:18:16.723Z,68.66
2018-02-08T00:20:47.827Z,68.55
2018-02-08T00:23:18.928Z,68.82
2018-02-08T00:25:50.004Z,68.96
2018-02-08T00:28:22.013Z,69.02
2018-02-08T00:30:53.105Z,69.06
2018-02-08T00:33:24.186Z,69.08
2018-02-08T00:35:55.323Z,69.13
2018-02-08T00:38:26.446Z,69.08
2018-02-08T00:40:57.592Z,69.01
2018-02-08T00:43:28.699Z,68.93
2018-02-08T00:45:59.831Z,68.85
2018-02-08T00:48:30.929Z,68.95
2018-02-08T00:51:02.043Z,68.77
2018-02-08T00:53:33.164Z,68.59
2018-02-08T00:56:04.301Z,68.45
2018-02-08T00:58:35.948Z,68.27
2018-02-08T01:01:07.106Z,68.11
2018-02-08T01:03:38.209Z,68.05
2018-02-08T01:06:09.314Z,67.92
2018-02-08T01:08:40.415Z,67.69
2018-02-08T01:11:11.457Z,67.61
2018-02-08T01:13:42.505Z,67.51
2018-02-08T01:16:13.587Z,67.44
2018-02-08T01:18:44.711Z,67.33
2018-02-08T01:21:15.757Z,67.40
2018-02-08T01:23:46.865Z,67.50
2018-02-08T01:26:17.973Z,67.40
2018-02-08T01:28:49.078Z,67.26
2018-02-08T01:31:20.195Z,67.33
2018-02-08T01:33:51.259Z,67.35
2018-02-08T01:36:22.376Z,67.32
2018-02-08T01:38:53.435Z,67.34
2018-02-08T01:41:24.499Z,67.52
2018-02-08T01:43:55.579Z,68.11
2018-02-08T01:46:26.617Z,68.19
2018-02-08T01:48:57.682Z,68.27
2018-02-08T01:51:28.723Z,68.28
2018-02-08T01:53:59.769Z,68.16
2018-02-08T01:56:30.823Z,67.93
2018-02-08T01:59:01.895Z,67.54
2018-02-08T02:01:32.994Z,67.32
2018-02-08T02:04:04.220Z,67.32
2018-02-08T02:06:35.317Z,67.41
2018-02-08T02:09:06.393Z,67.15
2018-02-08T02:11:37.435Z,66.86
2018-02-08T02:14:08.552Z,66.87
2018-02-08T02:16:39.651Z,67.07
2018-02-08T02:19:10.731Z,67.12
2018-02-08T02:21:41.773Z,67.11
2018-02-08T02:24:12.825Z,66.96
2018-02-08T02:26:43.947Z,66.86
2018-02-08T02:29:15.013Z,66.86
2018-02-08T02:31:46.099Z,66.92
2018-02-08T02:34:17.149Z,67.11
2018-02-08T02:36:48.245Z,67.22
2018-02-08T02:39:19.320Z,67.23
2018-02-08T02:41:50.399Z,67.04
2018-02-08T02:44:21.402Z,66.71
2018-02-08T02:46:52.441Z,66.54
2018-02-08T02:49:23.505Z,66.55
2018-02-08T02:51:54.652Z,66.38
2018-02-08T02:54:25.730Z,66.23
2018-02-08T02:56:56.834Z,66.12
2018-02-08T02:59:27.910Z,66.04
2018-02-08T03:01:59.010Z,65.99
2018-02-08T03:04:30.044Z,65.87
2018-02-08T03:07:01.125Z,65.86
2018-02-08T03:09:32.167Z,65.89
2018-02-08T03:12:03.261Z,65.97
2018-02-08T03:14:34.367Z,65.97
2018-02-08T03:17:05.457Z,66.00
2018-02-08T03:19:36.502Z,66.11
2018-02-08T03:22:07.544Z,65.85
2018-02-08T03:24:38.623Z,65.77
2018-02-08T03:27:09.711Z,65.88
2018-02-08T03:29:40.793Z,65.80
2018-02-08T03:32:11.909Z,65.75
2018-02-08T03:34:42.971Z,65.77
2018-02-08T03:37:14.079Z,65.81
2018-02-08T03:39:45.144Z,65.78
2018-02-08T03:42:16.224Z,65.79
2018-02-08T03:44:47.292Z,65.79
2018-02-08T03:47:18.375Z,65.81
2018-02-08T03:49:49.404Z,65.84
2018-02-08T03:52:20.493Z,65.68
2018-02-08T03:54:51.573Z,65.56
2018-02-08T03:57:22.621Z,65.45
2018-02-08T03:59:53.755Z,65.34
2018-02-08T04:02:24.820Z,65.17
2018-02-08T04:04:55.830Z,65.05
2018-02-08T04:07:26.901Z,64.85
2018-02-08T04:09:57.953Z,64.96
2018-02-08T04:12:29.019Z,64.82
2018-02-08T04:15:00.057Z,64.66
2018-02-08T04:17:31.149Z,64.65
2018-02-08T04:20:02.207Z,64.58
2018-02-08T04:22:33.272Z,64.66
2018-02-08T04:25:04.329Z,64.70
2018-02-08T04:27:35.366Z,65.10
2018-02-08T04:30:06.462Z,65.14
2018-02-08T04:32:37.542Z,65.08
2018-02-08T04:35:08.640Z,65.28
2018-02-08T04:37:39.705Z,65.17
2018-02-08T04:40:23.135Z,65.22
2018-02-08T04:43:06.640Z,65.50
2018-02-08T04:45:49.975Z,65.38
2018-02-08T04:48:21.071Z,65.67
2018-02-08T04:50:52.175Z,65.77
2018-02-08T04:53:23.257Z,65.67
2018-02-08T04:55:54.335Z,65.66
2018-02-08T04:58:25.416Z,65.62
2018-02-08T05:00:56.495Z,65.53
2018-02-08T05:03:27.584Z,65.43
2018-02-08T05:05:58.631Z,65.57
2018-02-08T05:08:29.708Z,65.85
2018-02-08T05:11:00.778Z,65.76
2018-02-08T05:13:31.808Z,65.67
2018-02-08T05:16:02.891Z,65.70
2018-02-08T05:18:33.970Z,65.59
2018-02-08T05:21:05.031Z,65.45
2018-02-08T05:23:36.086Z,65.40
2018-02-08T05:26:07.238Z,65.59
2018-02-08T05:28:38.326Z,65.67
2018-02-08T05:31:09.392Z,65.88
2018-02-08T05:33:40.485Z,66.02
2018-02-08T05:36:11.533Z,66.09
2018-02-08T05:38:42.608Z,65.85
2018-02-08T05:41:13.723Z,65.79
2018-02-08T05:43:44.788Z,65.72
2018-02-08T05:46:15.848Z,65.85
2018-02-08T05:48:46.870Z,65.66
2018-02-08T05:51:17.890Z,65.66
2018-02-08T05:53:48.985Z,65.60
2018-02-08T05:56:20.050Z,65.69
2018-02-08T05:58:51.164Z,65.79
2018-02-08T06:01:22.268Z,65.87
2018-02-08T06:03:53.842Z,66.01
2018-02-08T06:06:24.910Z,65.91
2018-02-08T06:08:56.430Z,65.80
2018-02-08T06:11:27.528Z,65.85
2018-02-08T06:13:58.644Z,66.10
2018-02-08T06:16:29.743Z,66.26
2018-02-08T06:19:00.864Z,66.09
2018-02-08T06:21:31.945Z,65.94
2018-02-08T06:24:03.023Z,65.96
2018-02-08T06:26:34.104Z,65.68
2018-02-08T06:29:05.177Z,65.67
2018-02-08T06:31:36.298Z,65.68
2018-02-08T06:34:07.383Z,65.60
2018-02-08T06:36:38.523Z,65.62
2018-02-08T06:39:09.580Z,65.74
2018-02-08T06:41:40.690Z,65.83
2018-02-08T06:44:11.748Z,66.09
2018-02-08T06:46:42.887Z,65.98
2018-02-08T06:49:13.949Z,65.82
2018-02-08T06:51:45.026Z,65.82
2018-02-08T06:54:16.090Z,65.72
2018-02-08T06:56:47.209Z,65.84
2018-02-08T06:59:18.307Z,66.25
2018-02-08T07:01:49.391Z,66.23
2018-02-08T07:04:20.475Z,66.27
2018-02-08T07:06:51.525Z,66.18
2018-02-08T07:09:22.624Z,66.31
2018-02-08T07:11:53.663Z,66.32
2018-02-08T07:14:24.703Z,66.31
2018-02-08T07:16:55.786Z,66.20
2018-02-08T07:19:26.821Z,66.29
2018-02-08T07:21:57.849Z,65.84
2018-02-08T07:24:28.901Z,65.69
2018-02-08T07:26:59.974Z,65.48
2018-02-08T07:29:31.015Z,65.25
2018-02-08T07:32:02.096Z,64.91
2018-02-08T07:34:33.247Z,64.87
2018-02-08T07:37:04.334Z,64.83
2018-02-08T07:39:35.437Z,64.54
2018-02-08T07:42:06.560Z,64.47
2018-02-08T07:44:37.683Z,64.23
2018-02-08T07:47:08.763Z,64.01
2018-02-08T07:49:39.823Z,63.93
2018-02-08T07:52:10.882Z,63.48
2018-02-08T07:54:41.955Z,63.59
2018-02-08T07:57:13.032Z,63.55
2018-02-08T07:59:44.155Z,63.43
2018-02-08T08:02:15.229Z,63.58
2018-02-08T08:04:53.133Z,63.26
2018-02-08T08:07:24.241Z,62.85
2018-02-08T08:09:55.340Z,62.41
2018-02-08T08:12:26.400Z,62.43
2018-02-08T08:14:57.470Z,62.09
2018-02-08T08:17:28.522Z,62.21
2018-02-08T08:19:59.643Z,62.02
2018-02-08T08:22:30.690Z,62.11
2018-02-08T08:25:02.767Z,61.96
2018-02-08T08:27:33.926Z,61.86
2018-02-08T08:30:04.997Z,61.45
2018-02-08T08:32:36.086Z,61.13
2018-02-08T08:35:07.199Z,60.99
2018-02-08T08:37:38.267Z,61.07
2018-02-08T08:40:09.363Z,60.92
2018-02-08T08:42:40.439Z,60.86
2018-02-08T08:45:11.515Z,61.20
2018-02-08T08:47:42.581Z,61.01
2018-02-08T08:50:13.641Z,60.85
2018-02-08T08:52:44.714Z,60.69
2018-02-08T08:55:15.792Z,60.31
2018-02-08T08:57:46.858Z,60.33
2018-02-08T09:00:17.954Z,60.21
2018-02-08T09:02:48.994Z,59.94
2018-02-08T09:05:20.087Z,59.74
2018-02-08T09:07:51.150Z,59.84
2018-02-08T09:10:22.231Z,59.93
2018-02-08T09:12:53.262Z,59.59
2018-02-08T09:15:24.336Z,59.16
2018-02-08T09:17:55.378Z,58.76
2018-02-08T09:20:26.438Z,58.56
2018-02-08T09:22:57.535Z,58.00
2018-02-08T09:25:28.585Z,57.19
2018-02-08T09:27:59.658Z,56.79
2018-02-08T09:30:30.695Z,56.47
2018-02-08T09:33:01.768Z,56.09
2018-02-08T09:35:32.864Z,55.84
2018-02-08T09:38:03.978Z,55.36
2018-02-08T09:40:35.058Z,54.69
2018-02-08T09:43:06.115Z,53.80
2018-02-08T09:45:37.251Z,53.05
2018-02-08T09:48:08.355Z,52.96
2018-02-08T09:50:39.434Z,53.00
2018-02-08T09:53:10.515Z,52.69
2018-02-08T09:55:41.612Z,52.17
2018-02-08T09:58:12.634Z,51.70
2018-02-08T10:00:43.784Z,52.03
2018-02-08T10:03:14.874Z,52.28
2018-02-08T10:05:45.992Z,52.15
2018-02-08T10:08:17.120Z,51.62
2018-02-08T10:10:49.174Z,51.28
2018-02-08T10:13:20.227Z,50.88
2018-02-08T10:15:51.268Z,50.29
2018-02-08T10:18:22.924Z,49.79
2018-02-08T10:20:53.986Z,49.19
2018-02-08T10:23:25.073Z,49.24
2018-02-08T10:25:56.134Z,48.83
2018-02-08T10:28:27.187Z,48.09
2018-02-08T10:30:58.275Z,48.55
2018-02-08T10:33:29.318Z,48.61
2018-02-08T10:36:00.430Z,48.66
2018-02-08T10:38:31.543Z,48.91
2018-02-08T10:41:02.665Z,48.45
2018-02-08T10:43:33.700Z,48.66
2018-02-08T10:46:04.793Z,48.88
2018-02-08T10:48:35.845Z,49.61
2018-02-08T10:51:07.015Z,49.60
2018-02-08T10:53:38.063Z,49.11
2018-02-08T10:56:09.192Z,48.62
2018-02-08T10:58:40.251Z,48.65
2018-02-08T11:01:11.352Z,49.14
2018-02-08T11:03:42.417Z,49.15
2018-02-08T11:06:14.174Z,49.17
2018-02-08T11:08:45.201Z,49.30
2018-02-08T11:11:16.309Z,49.34
2018-02-08T11:13:47.371Z,49.67
2018-02-08T11:16:18.546Z,50.04
2018-02-08T11:18:49.623Z,50.46
2018-02-08T11:21:20.714Z,50.76
2018-02-08T11:23:51.775Z,50.70
2018-02-08T11:26:22.843Z,50.84
2018-02-08T11:28:53.952Z,50.57
2018-02-08T11:31:25.020Z,50.24
2018-02-08T11:33:56.116Z,49.65
2018-02-08T11:36:27.161Z,48.91
2018-02-08T11:38:58.290Z,48.64
2018-02-08T11:41:29.380Z,48.79
2018-02-08T11:44:00.451Z,48.61
2018-02-08T11:46:31.557Z,48.23
2018-02-08T11:49:02.820Z,47.71
2018-02-08T11:51:33.954Z,46.93
2018-02-08T11:54:05.170Z,46.87
2018-02-08T11:56:36.242Z,46.49
2018-02-08T11:59:07.324Z,45.98
2018-02-08T12:01:38.438Z,45.84
2018-02-08T12:04:09.568Z,45.84
2018-02-08T12:06:41.471Z,45.43
2018-02-08T12:09:12.561Z,44.96
2018-02-08T12:11:43.655Z,45.03
2018-02-08T12:14:14.689Z,44.68
2018-02-08T12:16:45.795Z,44.75
2018-02-08T12:19:16.892Z,44.98
2018-02-08T12:21:48.026Z,45.54
2018-02-08T12:24:19.129Z,46.55
2018-02-08T12:26:50.232Z,47.53
2018-02-08T12:29:21.325Z,48.29
2018-02-08T12:31:52.371Z,48.83
2018-02-08T12:34:23.456Z,49.11
2018-02-08T12:36:54.531Z,49.08
2018-02-08T12:39:26.542Z,48.96
2018-02-08T12:41:57.618Z,48.19
2018-02-08T12:44:28.714Z,47.97
2018-02-08T12:46:59.777Z,48.15
2018-02-08T12:49:30.894Z,48.20
2018-02-08T12:52:01.958Z,48.31
2018-02-08T12:54:33.040Z,47.85
2018-02-08T12:57:04.177Z,47.81
2018-02-08T12:59:35.257Z,47.50
2018-02-08T13:02:06.308Z,46.66
2018-02-08T13:04:37.960Z,46.26
2018-02-08T13:07:09.204Z,47.09
2018-02-08T13:09:40.299Z,47.37
2018-02-08T13:12:11.401Z,47.79
2018-02-08T13:14:42.494Z,48.11
2018-02-08T13:17:13.589Z,48.15
2018-02-08T13:19:44.710Z,47.53
2018-02-08T13:22:15.807Z,47.47
2018-02-08T13:24:46.897Z,48.18
2018-02-08T13:27:18.083Z,48.63
2018-02-08T13:29:49.199Z,48.98
2018-02-08T13:32:20.246Z,49.15
2018-02-08T13:34:51.357Z,49.55
2018-02-08T13:37:22.467Z,49.63
2018-02-08T13:43:00.442Z,48.94
2018-02-08T13:45:32.687Z,49.03
2018-02-08T13:48:07.547Z,49.09
2018-02-08T13:54:03.469Z,49.15
2018-02-08T13:56:36.423Z,49.62
2018-02-08T13:59:13.581Z,50.29
2018-02-08T14:01:47.515Z,50.68
2018-02-08T14:04:18.597Z,51.16
2018-02-08T14:06:49.639Z,52.13
2018-02-08T14:09:20.719Z,52.39
2018-02-08T14:11:51.842Z,52.61
2018-02-08T14:14:22.903Z,52.70
2018-02-08T14:16:53.981Z,53.06
2018-02-08T14:19:25.093Z,52.96
2018-02-08T14:21:56.186Z,53.19
2018-02-08T14:24:27.248Z,52.71
2018-02-08T14:26:58.354Z,52.76
2018-02-08T14:29:29.423Z,52.78
2018-02-08T14:32:00.496Z,52.76
2018-02-08T14:34:31.608Z,52.39
2018-02-08T14:37:03.496Z,52.04
2018-02-08T14:39:34.560Z,52.35
2018-02-08T14:42:05.673Z,52.84
2018-02-08T14:44:36.725Z,53.40
2018-02-08T14:47:07.823Z,53.98
2018-02-08T14:49:39.609Z,54.29
2018-02-08T14:52:10.729Z,54.44
2018-02-08T14:54:41.812Z,54.49
2018-02-08T14:57:12.863Z,54.64
2018-02-08T14:59:43.944Z,54.67
2018-02-08T15:02:14.992Z,54.82
2018-02-08T15:04:46.086Z,55.13
2018-02-08T15:07:17.170Z,55.33
2018-02-08T15:09:48.211Z,55.21
2018-02-08T15:12:19.263Z,55.22
2018-02-08T15:14:50.348Z,56.05
2018-02-08T15:17:21.361Z,55.79
2018-02-08T15:19:52.421Z,55.92
2018-02-08T15:22:23.476Z,55.93
2018-02-08T15:24:54.563Z,55.98
2018-02-08T15:27:25.927Z,56.24
2018-02-08T15:29:57.051Z,56.48
2018-02-08T15:32:28.138Z,56.93
2018-02-08T15:34:59.572Z,56.83
2018-02-08T15:37:30.651Z,57.06
2018-02-08T15:40:01.727Z,57.36
2018-02-08T15:42:32.780Z,57.20
2018-02-08T15:45:03.929Z,57.24
2018-02-08T15:47:35.044Z,57.31
2018-02-08T15:50:06.131Z,57.73
2018-02-08T15:52:37.217Z,57.76
2018-02-08T15:55:08.303Z,58.01
2018-02-08T15:57:39.384Z,58.44
2018-02-08T16:00:10.439Z,58.82
2018-02-08T16:02:41.526Z,58.66
2018-02-08T16:05:12.591Z,58.86
2018-02-08T16:07:43.782Z,59.10
2018-02-08T16:10:14.834Z,59.22
2018-02-08T16:12:45.885Z,59.18
2018-02-08T16:15:16.993Z,59.67
2018-02-08T16:17:48.037Z,59.70
2018-02-08T16:20:19.123Z,59.87
2018-02-08T16:22:50.194Z,59.99
2018-02-08T16:25:21.257Z,60.22
2018-02-08T16:27:52.318Z,60.40
2018-02-08T16:30:23.395Z,60.61
2018-02-08T16:32:54.459Z,60.58
2018-02-08T16:35:25.518Z,60.54
2018-02-08T16:37:56.594Z,60.54
2018-02-08T16:40:27.700Z,60.62
2018-02-08T16:42:58.785Z,60.84
2018-02-08T16:45:29.883Z,61.14
2018-02-08T16:48:00.909Z,61.58
2018-02-08T16:50:32.022Z,61.82
2018-02-08T16:53:03.123Z,61.71
2018-02-08T16:55:34.184Z,61.80
2018-02-08T16:58:05.269Z,61.93
2018-02-08T17:00:36.334Z,62.18
2018-02-08T17:03:07.394Z,62.30
2018-02-08T17:05:38.456Z,62.66
2018-02-08T17:08:09.548Z,62.86
2018-02-08T17:10:40.627Z,62.96
2018-02-08T17:13:11.790Z,62.99
2018-02-08T17:15:42.897Z,62.90
2018-02-08T17:18:13.995Z,62.86
2018-02-08T17:20:45.042Z,63.10
2018-02-08T17:23:16.093Z,63.15
2018-02-08T17:25:47.132Z,62.75
2018-02-08T17:28:18.229Z,63.10
2018-02-08T17:30:49.283Z,63.25
2018-02-08T17:33:20.385Z,62.87
2018-02-08T17:35:51.438Z,62.79
2018-02-08T17:38:22.545Z,62.53
2018-02-08T17:40:53.620Z,62.34
2018-02-08T17:43:24.672Z,62.58
2018-02-08T17:45:55.806Z,62.58
2018-02-08T17:48:26.883Z,62.57
2018-02-08T17:50:57.974Z,62.41
2018-02-08T17:53:29.089Z,62.43
2018-02-08T17:56:00.202Z,62.10
2018-02-08T17:58:31.346Z,62.00
2018-02-08T18:01:02.482Z,62.14
2018-02-08T18:03:33.552Z,61.84
2018-02-08T18:06:11.579Z,61.99
2018-02-08T18:08:42.786Z,61.89
2018-02-08T18:11:13.868Z,61.93
2018-02-08T18:13:44.940Z,61.80
2018-02-08T18:16:16.008Z,61.85
2018-02-08T18:18:47.113Z,61.96
2018-02-08T18:21:18.161Z,62.14
2018-02-08T18:23:49.267Z,62.10
2018-02-08T18:26:20.373Z,62.14
2018-02-08T18:28:51.426Z,62.24
2018-02-08T18:31:22.470Z,61.96
2018-02-08T18:33:53.539Z,61.89
2018-02-08T18:36:24.572Z,62.06
2018-02-08T18:38:55.714Z,61.77
2018-02-08T18:41:26.770Z,61.24
2018-02-08T18:43:57.854Z,61.63
2018-02-08T18:46:28.901Z,61.75
2018-02-08T18:49:00.016Z,61.64
2018-02-08T18:51:31.119Z,61.89
2018-02-08T18:54:02.176Z,62.24
2018-02-08T18:56:33.282Z,62.37
2018-02-08T18:59:04.379Z,62.47
2018-02-08T19:01:35.491Z,62.74
2018-02-08T19:04:06.525Z,62.91
2018-02-08T19:06:37.616Z,62.61
2018-02-08T19:09:09.721Z,62.38
2018-02-08T19:11:40.847Z,61.93
2018-02-08T19:14:11.953Z,61.87
2018-02-08T19:16:42.996Z,61.74
2018-02-08T19:19:14.096Z,61.71
2018-02-08T19:21:45.177Z,61.33
2018-02-08T19:24:16.282Z,60.93
2018-02-08T19:26:47.364Z,60.85
2018-02-08T19:29:18.518Z,60.87
2018-02-08T19:31:49.591Z,61.62
2018-02-08T19:34:20.693Z,61.21
2018-02-08T19:36:51.783Z,61.19
2018-02-08T19:39:22.847Z,61.17
2018-02-08T19:41:53.894Z,61.17
2018-02-08T19:44:24.946Z,61.04
2018-02-08T19:46:56.028Z,60.88
2018-02-08T19:49:27.092Z,61.30
2018-02-08T19:51:58.130Z,61.17
2018-02-08T19:54:29.163Z,61.12
2018-02-08T19:57:00.259Z,60.98
2018-02-08T19:59:31.286Z,60.97
2018-02-08T20:02:02.426Z,61.03
2018-02-08T20:04:33.567Z,61.15
2018-02-08T20:07:04.939Z,61.04
2018-02-08T20:09:36.029Z,60.85
2018-02-08T20:12:07.199Z,61.11
2018-02-08T20:14:38.294Z,61.07
2018-02-08T20:17:10.870Z,61.22
2018-02-08T20:19:41.923Z,61.18
2018-02-08T20:22:12.993Z,61.26
2018-02-08T20:24:44.083Z,61.32
2018-02-08T20:27:15.174Z,61.34
2018-02-08T20:29:46.395Z,61.47
2018-02-08T20:32:17.498Z,61.00
2018-02-08T20:34:48.571Z,60.62
2018-02-08T20:37:19.648Z,60.48
2018-02-08T20:39:50.767Z,60.52
2018-02-08T20:42:27.763Z,60.41
2018-02-08T20:44:58.876Z,61.05
2018-02-08T20:47:29.953Z,61.27
2018-02-08T20:50:02.977Z,61.83
2018-02-08T20:52:34.020Z,62.16
2018-02-08T20:55:05.081Z,62.32
2018-02-08T20:57:36.234Z,62.48
2018-02-08T21:00:07.339Z,62.85
2018-02-08T21:02:38.382Z,63.60
2018-02-08T21:05:09.471Z,64.50
2018-02-08T21:07:40.582Z,64.29
2018-02-08T21:10:11.675Z,64.39
2018-02-08T21:12:42.724Z,64.60
2018-02-08T21:15:13.799Z,64.42
2018-02-08T21:17:44.934Z,64.34
2018-02-08T21:20:16.062Z,64.60
2018-02-08T21:22:47.155Z,64.88
2018-02-08T21:25:18.267Z,64.96
2018-02-08T21:27:49.349Z,65.80
2018-02-08T21:30:20.425Z,65.81
2018-02-08T21:32:51.518Z,65.45
2018-02-08T21:35:22.592Z,65.53
2018-02-08T21:37:53.698Z,65.54
2018-02-08T21:40:31.845Z,65.43
2018-02-08T21:43:02.976Z,65.51
2018-02-08T21:45:34.036Z,65.46
2018-02-08T21:48:05.155Z,65.42
2018-02-08T21:50:36.227Z,65.60
2018-02-08T21:53:07.323Z,65.47
2018-02-08T21:55:38.406Z,65.43
2018-02-08T21:58:09.453Z,65.19
2018-02-08T22:00:40.583Z,65.14
2018-02-08T22:03:11.643Z,64.95
2018-02-08T22:05:42.714Z,64.86
2018-02-08T22:08:13.799Z,64.71
2018-02-08T22:10:44.871Z,64.56
2018-02-08T22:13:15.965Z,64.58
2018-02-08T22:15:47.059Z,64.48
2018-02-08T22:18:18.110Z,64.39
2018-02-08T22:20:49.203Z,64.20
2018-02-08T22:23:20.297Z,64.06
2018-02-08T22:25:51.398Z,63.84
2018-02-08T22:28:22.456Z,63.81
2018-02-08T22:30:53.579Z,63.70
2018-02-08T22:33:24.596Z,63.61
2018-02-08T22:35:55.658Z,63.66
2018-02-08T22:38:26.780Z,63.69
2018-02-08T22:40:57.855Z,63.80
2018-02-08T22:43:28.922Z,63.90
2018-02-08T22:45:59.986Z,64.03
2018-02-08T22:48:31.032Z,64.20
2018-02-08T22:51:02.120Z,64.48
2018-02-08T22:53:33.215Z,64.80
2018-02-08T22:56:04.270Z,65.12
2018-02-08T22:58:35.377Z,65.14
2018-02-08T23:01:06.472Z,65.40
2018-02-08T23:03:37.595Z,65.56
2018-02-08T23:06:08.692Z,65.70
2018-02-08T23:08:39.770Z,65.94
2018-02-08T23:11:10.822Z,66.51
2018-02-08T23:13:41.889Z,66.56
2018-02-08T23:16:12.980Z,66.74
2018-02-08T23:18:44.074Z,66.96
2018-02-08T23:21:15.138Z,67.82
2018-02-08T23:23:46.188Z,68.58
2018-02-08T23:26:17.252Z,69.34
2018-02-08T23:28:48.378Z,69.82
2018-02-08T23:31:19.430Z,70.10
2018-02-08T23:33:50.488Z,70.41
2018-02-08T23:36:24.409Z,70.35
2018-02-08T23:38:55.474Z,70.26
2018-02-08T23:41:26.595Z,70.18
2018-02-08T23:43:57.661Z,69.83
2018-02-08T23:46:28.783Z,69.85
2018-02-08T23:48:59.847Z,69.63
2018-02-08T23:51:30.931Z,69.48
2018-02-08T23:54:02.116Z,69.33
2018-02-08T23:56:33.155Z,68.90
2018-02-08T23:59:04.260Z,68.92
